createdAt,value
2017-05-09T00:00:03.616Z,2.05
2017-05-09T00:02:33.254Z,2.20
2017-05-09T00:05:00.603Z,2.45
2017-05-09T00:07:28.536Z,2.88
2017-05-09T00:09:56.335Z,3.08
2017-05-09T00:12:25.268Z,2.08
2017-05-09T00:14:53.186Z,2.12
2017-05-09T00:17:21.495Z,2.50
2017-05-09T00:19:50.396Z,2.33
2017-05-09T00:22:17.945Z,1.93
2017-05-09T00:24:46.645Z,2.45
2017-05-09T00:27:13.858Z,2.00
2017-05-09T00:29:41.908Z,2.15
2017-05-09T00:32:11.622Z,2.90
2017-05-09T00:34:39.164Z,2.15
2017-05-09T00:37:12.023Z,2.20
2017-05-09T00:39:44.069Z,2.50
2017-05-09T00:42:15.895Z,2.38
2017-05-09T00:44:46.975Z,1.97
2017-05-09T00:47:16.160Z,1.87
2017-05-09T00:49:45.253Z,1.90
2017-05-09T00:52:14.843Z,1.85
2017-05-09T00:54:46.578Z,2.12
2017-05-09T00:57:16.625Z,2.98
2017-05-09T00:59:43.407Z,2.17
2017-05-09T01:02:14.118Z,1.77
2017-05-09T01:04:41.364Z,2.62
2017-05-09T01:07:10.384Z,2.98
2017-05-09T01:09:40.756Z,2.40
2017-05-09T01:12:09.505Z,2.65
2017-05-09T01:14:36.925Z,3.28
2017-05-09T01:17:08.328Z,2.80
2017-05-09T01:19:36.401Z,2.45
2017-05-09T01:22:07.290Z,2.50
2017-05-09T01:24:36.925Z,2.35
2017-05-09T01:29:36.120Z,2.65
2017-05-09T01:32:02.927Z,2.25
2017-05-09T01:34:30.757Z,3.38
2017-05-09T01:36:58.455Z,2.75
2017-05-09T01:39:25.257Z,2.85
2017-05-09T01:41:54.840Z,3.10
2017-05-09T01:44:22.527Z,3.07
2017-05-09T01:46:55.042Z,2.53
2017-05-09T01:49:23.117Z,2.43
2017-05-09T01:51:50.866Z,3.27
2017-05-09T01:54:21.736Z,3.45
2017-05-09T01:56:57.121Z,3.28
2017-05-09T01:59:23.946Z,3.20
2017-05-09T02:01:51.743Z,3.00
2017-05-09T02:04:21.748Z,3.05
2017-05-09T02:06:50.201Z,3.10
2017-05-09T02:09:19.125Z,3.15
2017-05-09T02:11:50.190Z,2.95
2017-05-09T02:14:19.889Z,2.77
2017-05-09T02:16:47.786Z,2.60
2017-05-09T02:19:15.723Z,3.07
2017-05-09T02:21:43.039Z,3.18
2017-05-09T02:24:10.368Z,3.50
2017-05-09T02:26:37.816Z,3.17
2017-05-09T02:29:04.615Z,3.55
2017-05-09T02:31:31.411Z,3.10
2017-05-09T02:34:03.356Z,3.93
2017-05-09T02:36:31.139Z,3.88
2017-05-09T02:39:00.117Z,3.25
2017-05-09T02:41:27.757Z,3.32
2017-05-09T02:43:57.552Z,3.92
2017-05-09T02:46:26.615Z,4.48
2017-05-09T02:48:53.908Z,3.30
2017-05-09T02:51:26.607Z,3.80
2017-05-09T02:53:57.477Z,3.50
2017-05-09T02:56:27.663Z,4.07
2017-05-09T03:01:29.428Z,3.35
2017-05-09T03:03:57.052Z,4.82
2017-05-09T03:06:24.241Z,3.83
2017-05-09T03:08:53.059Z,4.33
2017-05-09T03:11:19.862Z,4.75
2017-05-09T03:13:47.744Z,4.22
2017-05-09T03:16:14.829Z,4.25
2017-05-09T03:18:42.607Z,3.55
2017-05-09T03:21:13.020Z,3.15
2017-05-09T03:23:40.918Z,4.62
2017-05-09T03:26:08.534Z,4.17
2017-05-09T03:28:37.223Z,3.63
2017-05-09T03:31:07.207Z,4.42
2017-05-09T03:33:36.099Z,3.97
2017-05-09T03:36:05.536Z,5.52
2017-05-09T03:38:32.735Z,5.15
2017-05-09T03:40:59.556Z,4.58
2017-05-09T03:43:27.199Z,4.45
2017-05-09T03:45:56.936Z,4.55
2017-05-09T03:48:33.050Z,4.62
2017-05-09T03:51:00.900Z,4.75
2017-05-09T03:53:29.146Z,4.75
2017-05-09T03:55:57.440Z,4.35
2017-05-09T03:58:24.500Z,4.93
2017-05-09T04:00:51.837Z,4.53
2017-05-09T04:03:18.667Z,4.40
2017-05-09T04:05:46.013Z,4.88
2017-05-09T04:08:13.365Z,5.08
2017-05-09T04:10:43.691Z,5.48
2017-05-09T04:13:12.851Z,4.83
2017-05-09T04:15:40.587Z,5.63
2017-05-09T04:18:08.967Z,4.88
2017-05-09T04:20:40.877Z,4.90
2017-05-09T04:23:16.653Z,4.40
2017-05-09T04:25:43.960Z,5.53
2017-05-09T04:28:11.605Z,4.40
2017-05-09T04:30:38.503Z,5.10
2017-05-09T04:33:08.271Z,5.33
2017-05-09T04:35:36.608Z,4.12
2017-05-09T04:38:04.972Z,4.47
2017-05-09T04:40:32.301Z,4.37
2017-05-09T04:43:02.245Z,3.73
2017-05-09T04:45:31.720Z,3.62
2017-05-09T04:48:10.790Z,4.07
2017-05-09T04:50:40.035Z,3.95
2017-05-09T04:53:07.192Z,3.97
2017-05-09T04:55:35.750Z,4.43
2017-05-09T04:58:02.605Z,3.57
2017-05-09T05:00:31.526Z,4.10
2017-05-09T05:03:00.898Z,4.02
2017-05-09T05:05:29.762Z,4.48
2017-05-09T05:10:34.316Z,4.07
2017-05-09T05:13:02.776Z,4.10
2017-05-09T05:15:32.631Z,4.87
2017-05-09T05:18:00.070Z,3.95
2017-05-09T05:20:28.166Z,4.03
2017-05-09T05:22:56.963Z,3.80
2017-05-09T05:25:26.022Z,4.38
2017-05-09T05:27:55.745Z,3.83
2017-05-09T05:30:25.084Z,3.57
2017-05-09T05:32:59.196Z,3.53
2017-05-09T05:35:26.796Z,4.55
2017-05-09T05:38:04.395Z,4.83
2017-05-09T05:40:32.625Z,4.20
2017-05-09T05:43:01.123Z,3.73
2017-05-09T05:45:30.923Z,3.63
2017-05-09T05:47:58.686Z,3.78
2017-05-09T05:50:30.341Z,3.58
2017-05-09T05:55:30.809Z,3.30
2017-05-09T05:57:57.848Z,3.52
2017-05-09T06:00:30.093Z,4.23
2017-05-09T06:02:58.664Z,3.72
2017-05-09T06:05:28.502Z,3.47
2017-05-09T06:07:56.661Z,3.27
2017-05-09T06:10:28.211Z,4.10
2017-05-09T06:12:55.680Z,3.35
2017-05-09T06:15:22.566Z,3.57
2017-05-09T06:17:51.718Z,2.90
2017-05-09T06:22:53.069Z,3.38
2017-05-09T06:25:21.743Z,2.12
2017-05-09T06:27:49.930Z,2.90
2017-05-09T06:30:18.849Z,3.98
2017-05-09T06:32:46.646Z,3.13
2017-05-09T06:35:13.538Z,3.00
2017-05-09T06:37:42.520Z,3.25
2017-05-09T06:40:13.568Z,2.77
2017-05-09T06:42:42.761Z,2.63
2017-05-09T06:45:10.879Z,2.58
2017-05-09T06:47:45.722Z,2.47
2017-05-09T06:50:18.842Z,2.57
2017-05-09T06:52:46.384Z,2.70
2017-05-09T06:55:15.374Z,2.62
2017-05-09T06:57:42.652Z,3.13
2017-05-09T07:00:09.680Z,2.90
2017-05-09T07:02:36.829Z,2.98
2017-05-09T07:05:03.618Z,2.47
2017-05-09T07:07:30.402Z,2.98
2017-05-09T07:09:57.459Z,2.98
2017-05-09T07:12:24.267Z,2.68
2017-05-09T07:14:51.386Z,2.10
2017-05-09T07:17:18.874Z,3.80
2017-05-09T07:19:45.705Z,1.92
2017-05-09T07:22:12.553Z,2.78
2017-05-09T07:24:39.670Z,2.15
2017-05-09T07:27:06.472Z,2.63
2017-05-09T07:29:34.373Z,2.05
2017-05-09T07:32:01.694Z,2.40
2017-05-09T07:34:29.364Z,2.30
2017-05-09T07:36:56.248Z,2.18
2017-05-09T07:39:23.445Z,2.20
2017-05-09T07:41:50.225Z,2.60
2017-05-09T07:44:17.092Z,2.18
2017-05-09T07:46:44.148Z,2.23
2017-05-09T07:49:10.919Z,1.95
2017-05-09T07:51:37.733Z,1.95
2017-05-09T07:54:06.225Z,2.02
2017-05-09T07:56:33.064Z,2.03
2017-05-09T07:58:59.842Z,1.53
2017-05-09T08:01:26.889Z,2.25
2017-05-09T08:03:54.552Z,1.98
2017-05-09T08:06:21.358Z,1.68
2017-05-09T08:08:48.509Z,1.80
2017-05-09T08:11:15.691Z,2.38
2017-05-09T08:13:42.520Z,1.42
2017-05-09T08:16:09.573Z,2.07
2017-05-09T08:18:36.402Z,2.25
2017-05-09T08:21:03.208Z,2.28
2017-05-09T08:23:30.273Z,3.57
2017-05-09T08:25:57.114Z,2.23
2017-05-09T08:28:24.329Z,2.05
2017-05-09T08:30:51.392Z,1.92
2017-05-09T08:33:18.192Z,2.28
2017-05-09T08:35:45.669Z,2.27
2017-05-09T08:38:12.766Z,2.08
2017-05-09T08:40:46.441Z,2.13
2017-05-09T08:43:13.712Z,2.78
2017-05-09T08:45:40.542Z,2.80
2017-05-09T08:48:07.319Z,2.80
2017-05-09T08:50:34.405Z,2.30
2017-05-09T08:53:01.236Z,1.92
2017-05-09T08:55:28.069Z,2.70
2017-05-09T08:57:55.211Z,2.08
2017-05-09T09:00:21.995Z,2.87
2017-05-09T09:02:48.768Z,2.28
2017-05-09T09:05:15.872Z,2.13
2017-05-09T09:07:42.671Z,2.32
2017-05-09T09:10:09.448Z,2.35
2017-05-09T09:12:37.117Z,2.27
2017-05-09T09:15:03.959Z,2.30
2017-05-09T09:17:30.973Z,2.28
2017-05-09T09:19:58.372Z,2.67
2017-05-09T09:22:25.284Z,2.70
2017-05-09T09:24:52.124Z,2.35
2017-05-09T09:27:19.735Z,2.28
2017-05-09T09:29:46.631Z,2.18
2017-05-09T09:32:13.805Z,1.93
2017-05-09T09:34:42.713Z,2.37
2017-05-09T09:37:11.609Z,2.72
2017-05-09T09:39:38.441Z,2.50
2017-05-09T09:42:05.953Z,2.97
2017-05-09T09:44:32.736Z,3.22
2017-05-09T09:47:00.317Z,2.60
2017-05-09T09:49:27.736Z,2.40
2017-05-09T09:51:56.268Z,2.52
2017-05-09T09:54:25.697Z,2.88
2017-05-09T09:56:52.811Z,2.73
2017-05-09T09:59:19.588Z,3.17
2017-05-09T10:01:46.388Z,3.47
2017-05-09T10:04:13.449Z,2.77
2017-05-09T10:06:40.266Z,2.78
2017-05-09T10:09:07.180Z,3.72
2017-05-09T10:11:34.427Z,2.42
2017-05-09T10:14:01.287Z,3.13
2017-05-09T10:16:28.111Z,2.75
2017-05-09T10:18:55.189Z,2.60
2017-05-09T10:21:21.994Z,2.42
2017-05-09T10:23:48.801Z,2.85
2017-05-09T10:26:16.201Z,2.85
2017-05-09T10:28:43.055Z,2.80
2017-05-09T10:31:10.756Z,2.48
2017-05-09T10:36:13.399Z,3.23
2017-05-09T10:38:41.405Z,3.27
2017-05-09T10:41:09.148Z,2.68
2017-05-09T10:43:36.069Z,2.77
2017-05-09T10:46:03.848Z,2.58
2017-05-09T10:48:30.665Z,2.80
2017-05-09T10:50:57.613Z,3.13
2017-05-09T10:53:26.663Z,2.25
2017-05-09T10:55:54.562Z,2.53
2017-05-09T10:58:24.894Z,2.53
2017-05-09T11:00:53.375Z,3.58
2017-05-09T11:03:24.334Z,3.45
2017-05-09T11:05:51.521Z,3.35
2017-05-09T11:08:20.712Z,2.93
2017-05-09T11:10:49.918Z,2.77
2017-05-09T11:13:17.470Z,2.82
2017-05-09T11:15:47.327Z,2.72
2017-05-09T11:18:16.523Z,2.85
2017-05-09T11:20:44.473Z,3.12
2017-05-09T11:23:16.397Z,2.63
2017-05-09T11:25:43.987Z,2.33
2017-05-09T11:28:15.072Z,3.08
2017-05-09T11:30:42.399Z,2.83
2017-05-09T11:33:11.556Z,4.98
2017-05-09T11:35:39.053Z,2.77
2017-05-09T11:38:07.458Z,3.07
2017-05-09T11:40:34.849Z,2.72
2017-05-09T11:43:03.113Z,2.92
2017-05-09T11:45:30.055Z,3.07
2017-05-09T11:47:57.519Z,3.13
2017-05-09T11:50:24.655Z,2.90
2017-05-09T11:52:52.706Z,2.95
2017-05-09T11:55:24.499Z,3.73
2017-05-09T11:57:53.457Z,2.33
2017-05-09T12:00:21.704Z,2.75
2017-05-09T12:02:51.362Z,3.18
2017-05-09T12:05:19.627Z,2.00
2017-05-09T12:07:46.428Z,2.65
2017-05-09T12:10:14.071Z,2.73
2017-05-09T12:12:42.388Z,3.03
2017-05-09T12:15:09.933Z,2.50
2017-05-09T12:17:37.415Z,2.60
2017-05-09T12:20:04.468Z,3.00
2017-05-09T12:22:31.314Z,2.98
2017-05-09T12:25:00.674Z,3.13
2017-05-09T12:27:28.516Z,2.92
2017-05-09T12:29:55.383Z,3.20
2017-05-09T12:32:24.017Z,2.42
2017-05-09T12:34:51.974Z,3.43
2017-05-09T12:37:18.832Z,2.78
2017-05-09T12:39:47.616Z,2.60
2017-05-09T12:42:15.473Z,3.00
2017-05-09T12:47:20.533Z,2.68
2017-05-09T12:49:47.400Z,3.07
2017-05-09T12:52:16.275Z,2.98
2017-05-09T12:54:43.795Z,2.93
2017-05-09T12:57:10.689Z,2.68
2017-05-09T12:59:38.249Z,3.22
2017-05-09T13:02:06.676Z,3.13
2017-05-09T13:04:35.427Z,3.10
2017-05-09T13:07:02.604Z,2.72
2017-05-09T13:09:31.429Z,3.00
2017-05-09T13:12:00.809Z,2.73
2017-05-09T13:14:30.317Z,3.03
2017-05-09T13:16:57.676Z,2.85
2017-05-09T13:19:24.471Z,3.28
2017-05-09T13:21:52.087Z,3.18
2017-05-09T13:24:22.312Z,2.50
2017-05-09T13:26:51.792Z,2.55
2017-05-09T13:29:18.693Z,2.40
2017-05-09T13:31:46.757Z,2.60
2017-05-09T13:34:13.981Z,2.60
2017-05-09T13:36:43.212Z,2.45
2017-05-09T13:39:11.436Z,2.43
2017-05-09T13:41:40.219Z,2.60
2017-05-09T13:44:09.875Z,2.40
2017-05-09T13:46:37.762Z,3.28
2017-05-09T13:49:05.601Z,3.00
2017-05-09T13:51:34.173Z,2.68
2017-05-09T13:54:02.369Z,2.50
2017-05-09T13:56:29.194Z,2.98
2017-05-09T13:58:56.084Z,2.53
2017-05-09T14:01:23.466Z,1.90
2017-05-09T14:03:52.320Z,2.87
2017-05-09T14:06:19.937Z,2.58
2017-05-09T14:11:24.048Z,2.07
2017-05-09T14:13:52.113Z,2.38
2017-05-09T14:16:19.553Z,2.77
2017-05-09T14:18:47.363Z,2.85
2017-05-09T14:21:18.939Z,2.70
2017-05-09T14:23:47.951Z,2.83
2017-05-09T14:26:16.747Z,2.33
2017-05-09T14:28:51.564Z,2.78
2017-05-09T14:31:23.594Z,2.60
2017-05-09T14:33:52.656Z,2.75
2017-05-09T14:36:20.953Z,2.83
2017-05-09T14:38:50.669Z,2.80
2017-05-09T14:41:17.493Z,2.65
2017-05-09T14:43:45.931Z,3.03
2017-05-09T14:46:18.318Z,3.08
2017-05-09T14:48:45.172Z,6.65
2017-05-09T14:51:12.735Z,3.13
2017-05-09T14:53:40.158Z,3.72
2017-05-09T14:56:07.885Z,4.05
2017-05-09T14:58:35.710Z,3.43
2017-05-09T15:01:03.908Z,3.23
2017-05-09T15:03:33.074Z,2.90
2017-05-09T15:06:01.598Z,3.50
2017-05-09T15:08:31.230Z,3.63
2017-05-09T15:10:58.281Z,2.83
2017-05-09T15:13:25.111Z,3.38
2017-05-09T15:15:52.346Z,3.02
2017-05-09T15:18:19.177Z,3.08
2017-05-09T15:20:47.187Z,2.88
2017-05-09T15:23:17.715Z,2.95
2017-05-09T15:25:45.829Z,3.22
2017-05-09T15:28:14.734Z,3.45
2017-05-09T15:30:43.292Z,3.57
2017-05-09T15:33:11.656Z,3.00
2017-05-09T15:35:38.493Z,3.20
2017-05-09T15:40:38.301Z,3.60
2017-05-09T15:43:05.117Z,3.02
2017-05-09T15:45:33.397Z,3.45
2017-05-09T15:48:00.811Z,4.10
2017-05-09T15:53:04.600Z,3.47
2017-05-09T15:55:32.276Z,3.48
2017-05-09T15:57:59.104Z,3.27
2017-05-09T16:00:26.575Z,3.72
2017-05-09T16:02:53.425Z,3.65
2017-05-09T16:05:20.212Z,3.27
2017-05-09T16:07:49.309Z,2.90
2017-05-09T16:10:16.125Z,3.57
2017-05-09T16:12:44.476Z,3.00
2017-05-09T16:15:11.808Z,3.75
2017-05-09T16:17:38.974Z,5.85
2017-05-09T16:20:05.866Z,3.13
2017-05-09T16:22:33.157Z,3.40
2017-05-09T16:25:00.424Z,3.08
2017-05-09T16:27:27.829Z,2.95
2017-05-09T16:29:55.113Z,3.33
2017-05-09T16:32:21.943Z,3.03
2017-05-09T16:34:48.793Z,3.82
2017-05-09T16:37:16.192Z,3.15
2017-05-09T16:39:43.457Z,3.60
2017-05-09T16:42:10.287Z,2.88
2017-05-09T16:44:37.696Z,3.62
2017-05-09T16:47:04.652Z,4.67
2017-05-09T16:49:31.451Z,4.08
2017-05-09T16:51:58.503Z,3.62
2017-05-09T16:54:25.305Z,3.33
2017-05-09T16:56:52.104Z,3.50
2017-05-09T16:59:19.446Z,3.63
2017-05-09T17:01:46.254Z,3.90
2017-05-09T17:04:13.096Z,3.62
2017-05-09T17:06:41.272Z,4.38
2017-05-09T17:09:08.077Z,3.40
2017-05-09T17:11:35.767Z,3.87
2017-05-09T17:14:02.943Z,4.27
2017-05-09T17:16:29.740Z,3.70
2017-05-09T17:18:56.590Z,4.70
2017-05-09T17:21:23.717Z,4.88
2017-05-09T17:23:50.520Z,3.95
2017-05-09T17:26:17.316Z,5.40
2017-05-09T17:28:44.721Z,4.07
2017-05-09T17:31:11.541Z,4.23
2017-05-09T17:33:38.345Z,4.85
2017-05-09T17:36:05.535Z,4.05
2017-05-09T17:38:32.807Z,3.48
2017-05-09T17:40:59.609Z,3.58
2017-05-09T17:43:27.617Z,3.67
2017-05-09T17:45:54.590Z,3.42
2017-05-09T17:48:21.397Z,3.65
2017-05-09T17:50:48.768Z,3.15
2017-05-09T17:53:15.556Z,4.07
2017-05-09T17:55:42.337Z,3.37
2017-05-09T17:58:09.579Z,3.48
2017-05-09T18:00:36.377Z,3.80
2017-05-09T18:03:03.155Z,3.40
2017-05-09T18:05:30.253Z,3.67
2017-05-09T18:07:57.135Z,3.57
2017-05-09T18:10:23.974Z,3.55
2017-05-09T18:12:51.884Z,3.58
2017-05-09T18:15:24.819Z,4.27
2017-05-09T18:17:53.034Z,3.30
2017-05-09T18:20:19.895Z,3.68
2017-05-09T18:22:48.788Z,4.67
2017-05-09T18:25:18.244Z,3.58
2017-05-09T18:27:45.101Z,4.22
2017-05-09T18:30:14.440Z,3.65
2017-05-09T18:32:42.756Z,2.78
2017-05-09T18:35:11.699Z,2.70
2017-05-09T18:37:40.414Z,3.40
2017-05-09T18:40:08.340Z,3.30
2017-05-09T18:42:37.951Z,2.73
2017-05-09T18:45:07.414Z,2.53
2017-05-09T18:47:35.677Z,2.92
2017-05-09T18:50:02.895Z,3.43
2017-05-09T18:52:30.219Z,2.72
2017-05-09T18:54:59.433Z,3.27
2017-05-09T18:57:28.672Z,3.35
2017-05-09T18:59:56.544Z,3.92
2017-05-09T19:02:23.625Z,3.22
2017-05-09T19:04:54.612Z,3.28
2017-05-09T19:07:21.792Z,3.35
2017-05-09T19:09:49.780Z,2.93
2017-05-09T19:12:16.948Z,3.33
2017-05-09T19:14:44.587Z,3.15
2017-05-09T19:17:13.406Z,3.42
2017-05-09T19:19:41.882Z,3.03
2017-05-09T19:24:48.682Z,2.83
2017-05-09T19:27:15.943Z,4.52
2017-05-09T19:29:42.826Z,3.17
2017-05-09T19:32:12.150Z,3.25
2017-05-09T19:34:41.667Z,3.62
2017-05-09T19:37:11.428Z,3.05
2017-05-09T19:39:43.536Z,2.90
2017-05-09T19:42:13.258Z,2.95
2017-05-09T19:44:41.707Z,2.82
2017-05-09T19:47:15.920Z,3.05
2017-05-09T19:49:45.480Z,3.48
2017-05-09T19:52:15.055Z,3.25
2017-05-09T19:59:56.361Z,4.73
2017-05-09T20:02:30.121Z,3.60
2017-05-09T20:04:57.846Z,2.98
2017-05-09T20:07:25.591Z,3.05
2017-05-09T20:09:55.509Z,2.73
2017-05-09T20:12:24.379Z,3.05
2017-05-09T20:14:57.508Z,3.15
2017-05-09T20:17:29.643Z,3.05
2017-05-09T20:20:00.695Z,2.55
2017-05-09T20:22:29.791Z,3.60
2017-05-09T20:25:04.363Z,4.07
2017-05-09T20:27:38.788Z,3.72
2017-05-09T20:30:07.543Z,4.08
2017-05-09T20:32:40.496Z,3.20
2017-05-09T20:35:12.493Z,2.83
2017-05-09T20:37:45.171Z,3.42
2017-05-09T20:40:14.155Z,3.90
2017-05-09T20:42:41.515Z,3.05
2017-05-09T20:45:08.343Z,3.28
2017-05-09T20:47:37.424Z,2.50
2017-05-09T20:50:05.289Z,2.78
2017-05-09T20:52:34.896Z,3.38
2017-05-09T20:55:10.409Z,3.42
2017-05-09T20:57:40.911Z,3.93
2017-05-09T21:00:11.558Z,3.22
2017-05-09T21:02:51.262Z,3.60
2017-05-09T21:05:23.122Z,3.82
2017-05-09T21:07:50.685Z,4.02
2017-05-09T21:10:30.866Z,3.82
2017-05-09T21:13:01.194Z,4.43
2017-05-09T21:15:29.028Z,4.98
2017-05-09T21:18:00.856Z,4.73
2017-05-09T21:20:29.335Z,5.10
2017-05-09T21:23:02.086Z,5.22
2017-05-09T21:25:31.968Z,4.58
2017-05-09T21:27:58.740Z,4.35
2017-05-09T21:30:29.093Z,5.88
2017-05-09T21:32:57.634Z,5.13
2017-05-09T21:35:26.932Z,5.18
2017-05-09T21:37:54.670Z,5.30
2017-05-09T21:40:22.736Z,5.77
2017-05-09T21:42:50.374Z,5.37
2017-05-09T21:45:19.117Z,6.30
2017-05-09T21:47:46.235Z,5.75
2017-05-09T21:50:16.735Z,5.58
2017-05-09T21:52:43.544Z,5.23
2017-05-09T21:55:13.239Z,5.27
2017-05-09T21:57:42.177Z,5.15
2017-05-09T22:00:10.377Z,5.10
2017-05-09T22:02:39.444Z,4.73
2017-05-09T22:05:07.310Z,5.52
2017-05-09T22:07:37.899Z,5.52
2017-05-09T22:10:05.148Z,5.82
2017-05-09T22:12:33.391Z,5.07
2017-05-09T22:15:13.884Z,5.67
2017-05-09T22:17:41.468Z,5.82
2017-05-09T22:20:08.303Z,4.75
2017-05-09T22:22:35.468Z,4.77
2017-05-09T22:25:02.984Z,5.50
2017-05-09T22:27:32.563Z,5.32
2017-05-09T22:30:01.435Z,6.20
2017-05-09T22:32:29.988Z,5.32
2017-05-09T22:34:56.983Z,5.60
2017-05-09T22:37:24.822Z,4.87
2017-05-09T22:39:51.840Z,5.83
2017-05-09T22:42:18.619Z,5.15
2017-05-09T22:44:46.922Z,5.42
2017-05-09T22:47:16.751Z,5.47
2017-05-09T22:49:46.105Z,4.63
2017-05-09T22:52:15.040Z,6.37
2017-05-09T22:54:41.811Z,5.50
2017-05-09T22:57:08.829Z,5.32
2017-05-09T22:59:35.854Z,5.32
2017-05-09T23:02:02.639Z,5.33
2017-05-09T23:04:29.950Z,6.55
2017-05-09T23:06:59.466Z,6.37
2017-05-09T23:09:28.359Z,6.10
2017-05-09T23:11:57.782Z,5.70
2017-05-09T23:14:24.607Z,5.82
2017-05-09T23:16:52.687Z,4.62
2017-05-09T23:19:20.388Z,5.83
2017-05-09T23:21:47.122Z,5.57
2017-05-09T23:24:17.510Z,5.70
2017-05-09T23:26:48.470Z,6.12
2017-05-09T23:29:15.995Z,6.32
2017-05-09T23:31:43.059Z,6.65
2017-05-09T23:34:12.096Z,6.07
2017-05-09T23:36:39.381Z,6.72
2017-05-09T23:39:09.617Z,6.48
2017-05-09T23:41:37.913Z,6.97
2017-05-09T23:44:05.772Z,7.08
2017-05-09T23:46:32.590Z,6.08
2017-05-09T23:49:01.706Z,6.08
2017-05-09T23:51:28.516Z,5.93
2017-05-09T23:53:59.987Z,7.57
2017-05-09T23:56:28.993Z,6.30
2017-05-09T23:59:01.413Z,7.02
